createdAt,value
2019-05-05T00:00:35.237Z,4.03
2019-05-05T00:03:05.673Z,4.14
2019-05-05T00:05:36.719Z,3.55
2019-05-05T00:08:06.361Z,3.87
2019-05-05T00:10:56.998Z,3.72
2019-05-05T00:13:28.445Z,3.93
2019-05-05T00:16:04.509Z,3.06
2019-05-05T00:18:34.627Z,3.54
2019-05-05T00:21:04.606Z,3.23
2019-05-05T00:23:34.652Z,3.53
2019-05-05T00:26:04.507Z,3.66
2019-05-05T00:28:35.344Z,3.77
2019-05-05T00:31:04.645Z,3.52
2019-05-05T00:33:34.396Z,3.63
2019-05-05T00:36:07.450Z,3.91
2019-05-05T00:38:35.231Z,3.62
2019-05-05T00:41:05.423Z,3.82
2019-05-05T00:43:34.670Z,3.23
2019-05-05T00:46:05.150Z,3.90
2019-05-05T00:48:38.679Z,3.87
2019-05-05T00:51:08.566Z,3.17
2019-05-05T00:53:37.457Z,3.40
2019-05-05T00:56:06.349Z,3.36
2019-05-05T00:58:36.792Z,3.39
2019-05-05T01:01:16.010Z,3.11
2019-05-05T01:03:44.902Z,3.43
2019-05-05T01:06:18.603Z,3.26
2019-05-05T01:08:47.801Z,3.38
2019-05-05T01:11:17.489Z,3.68
2019-05-05T01:13:49.367Z,3.35
2019-05-05T01:16:18.475Z,3.59
2019-05-05T01:18:47.459Z,3.68
2019-05-05T01:21:17.989Z,3.75
2019-05-05T01:23:46.985Z,3.45
2019-05-05T01:26:15.881Z,3.58
2019-05-05T01:28:44.866Z,3.57
2019-05-05T01:31:15.331Z,3.68
2019-05-05T01:34:04.715Z,3.62
2019-05-05T01:36:34.564Z,3.83
2019-05-05T01:39:21.392Z,3.72
2019-05-05T01:41:51.852Z,3.91
2019-05-05T01:44:20.710Z,3.85
2019-05-05T01:46:49.601Z,3.48
2019-05-05T01:49:18.494Z,3.48
2019-05-05T01:51:47.487Z,3.91
2019-05-05T01:54:16.378Z,4.03
2019-05-05T01:56:45.495Z,3.97
2019-05-05T01:59:14.584Z,4.07
2019-05-05T02:01:44.520Z,4.17
2019-05-05T02:04:14.475Z,3.97
2019-05-05T02:06:44.337Z,3.91
2019-05-05T02:09:15.929Z,3.75
2019-05-05T02:11:45.357Z,4.23
2019-05-05T02:14:15.608Z,4.22
2019-05-05T02:16:45.178Z,3.99
2019-05-05T02:19:14.425Z,3.81
2019-05-05T02:21:45.285Z,3.79
2019-05-05T02:24:14.567Z,3.81
2019-05-05T02:26:45.577Z,3.79
2019-05-05T02:29:31.475Z,3.28
2019-05-05T02:32:16.952Z,3.27
2019-05-05T02:34:56.326Z,3.24
2019-05-05T02:37:25.615Z,3.80
2019-05-05T02:40:02.198Z,3.56
2019-05-05T02:42:27.472Z,3.43
2019-05-05T02:44:59.256Z,3.82
2019-05-05T02:47:35.387Z,4.00
2019-05-05T02:50:06.851Z,3.49
2019-05-05T02:52:37.873Z,3.33
2019-05-05T02:55:07.583Z,3.58
2019-05-05T02:57:36.853Z,3.56
2019-05-05T03:00:08.350Z,3.07
2019-05-05T03:02:37.540Z,3.79
2019-05-05T03:05:07.353Z,3.86
2019-05-05T03:07:38.043Z,3.79
2019-05-05T03:10:08.500Z,3.93
2019-05-05T03:12:40.197Z,4.03
2019-05-05T03:15:11.006Z,3.93
2019-05-05T03:17:40.004Z,4.16
2019-05-05T03:20:09.783Z,4.14
2019-05-05T03:22:38.891Z,4.06
2019-05-05T03:25:07.906Z,4.20
2019-05-05T03:27:37.190Z,4.14
2019-05-05T03:30:09.290Z,4.13
2019-05-05T03:32:38.162Z,4.12
2019-05-05T03:35:07.462Z,3.98
2019-05-05T03:37:36.968Z,3.91
2019-05-05T03:40:08.622Z,3.80
2019-05-05T03:42:44.298Z,4.01
2019-05-05T03:45:15.005Z,4.01
2019-05-05T03:47:44.196Z,3.58
2019-05-05T03:50:14.411Z,3.41
2019-05-05T03:52:43.909Z,3.53
2019-05-05T03:55:13.867Z,4.00
2019-05-05T03:57:44.536Z,4.00
2019-05-05T04:00:15.883Z,3.72
2019-05-05T04:02:49.532Z,4.07
2019-05-05T04:05:19.964Z,4.03
2019-05-05T04:07:48.954Z,3.52
2019-05-05T04:10:17.946Z,3.75
2019-05-05T04:12:47.634Z,3.95
2019-05-05T04:15:16.854Z,3.94
2019-05-05T04:17:50.035Z,3.96
2019-05-05T04:20:20.475Z,3.92
2019-05-05T04:22:49.364Z,3.85
2019-05-05T04:25:18.257Z,3.87
2019-05-05T04:27:47.146Z,3.96
2019-05-05T04:30:16.039Z,4.05
2019-05-05T04:32:44.928Z,4.05
2019-05-05T04:35:14.248Z,4.03
2019-05-05T04:37:43.853Z,3.97
2019-05-05T04:40:14.828Z,3.46
2019-05-05T04:42:44.262Z,3.75
2019-05-05T04:45:14.830Z,3.30
2019-05-05T04:47:48.720Z,3.63
2019-05-05T04:50:35.840Z,3.47
2019-05-05T04:53:09.168Z,3.85
2019-05-05T04:55:39.664Z,3.83
2019-05-05T04:58:08.964Z,4.02
2019-05-05T05:00:37.857Z,3.93
2019-05-05T05:03:14.261Z,3.89
2019-05-05T05:05:56.837Z,3.87
2019-05-05T05:08:25.728Z,4.14
2019-05-05T05:10:54.617Z,4.07
2019-05-05T05:13:24.464Z,4.09
2019-05-05T05:15:54.072Z,3.92
2019-05-05T05:18:24.003Z,4.13
2019-05-05T05:20:54.877Z,4.23
2019-05-05T05:23:24.645Z,4.14
2019-05-05T05:25:54.391Z,3.94
2019-05-05T05:28:23.761Z,3.95
2019-05-05T05:30:54.582Z,4.03
2019-05-05T05:33:23.882Z,4.15
2019-05-05T05:35:54.653Z,4.34
2019-05-05T05:38:24.502Z,4.32
2019-05-05T05:40:58.106Z,4.33
2019-05-05T05:43:34.779Z,4.24
2019-05-05T05:46:10.929Z,4.10
2019-05-05T05:48:44.644Z,4.18
2019-05-05T05:51:15.072Z,4.18
2019-05-05T05:53:44.030Z,4.10
2019-05-05T05:56:13.516Z,4.03
2019-05-05T05:58:44.182Z,3.98
2019-05-05T06:01:14.669Z,3.76
2019-05-05T06:03:44.382Z,4.10
2019-05-05T06:06:13.843Z,4.14
2019-05-05T06:08:43.980Z,4.25
2019-05-05T06:11:13.645Z,4.20
2019-05-05T06:13:44.439Z,4.35
2019-05-05T06:16:14.595Z,4.35
2019-05-05T06:18:43.802Z,4.12
2019-05-05T06:21:13.752Z,3.81
2019-05-05T06:23:43.696Z,4.38
2019-05-05T06:26:15.215Z,4.11
2019-05-05T06:28:44.778Z,4.47
2019-05-05T06:31:14.562Z,4.70
2019-05-05T06:33:43.865Z,4.18
2019-05-05T06:36:14.163Z,4.50
2019-05-05T06:38:43.822Z,4.58
2019-05-05T06:41:26.788Z,4.76
2019-05-05T06:44:03.686Z,4.84
2019-05-05T06:46:50.888Z,4.47
2019-05-05T06:49:19.781Z,4.69
2019-05-05T06:51:49.898Z,4.41
2019-05-05T06:54:18.700Z,4.61
2019-05-05T06:56:47.580Z,4.48
2019-05-05T06:59:16.471Z,4.71
2019-05-05T07:01:45.361Z,4.67
2019-05-05T07:04:14.561Z,4.77
2019-05-05T07:06:53.530Z,4.57
2019-05-05T07:09:15.622Z,5.09
2019-05-05T07:11:44.513Z,5.23
2019-05-05T07:14:14.308Z,5.55
2019-05-05T07:16:43.877Z,5.60
2019-05-05T07:19:14.683Z,5.46
2019-05-05T07:21:45.227Z,5.66
2019-05-05T07:24:14.667Z,5.90
2019-05-05T07:26:44.667Z,5.33
2019-05-05T07:29:16.380Z,5.37
2019-05-05T07:31:44.456Z,5.66
2019-05-05T07:34:14.746Z,5.49
2019-05-05T07:36:47.984Z,5.49
2019-05-05T07:39:16.956Z,5.44
2019-05-05T07:41:45.953Z,5.53
2019-05-05T07:44:25.796Z,5.59
2019-05-05T07:46:45.372Z,5.29
2019-05-05T07:49:14.262Z,5.19
2019-05-05T07:51:44.731Z,5.52
2019-05-05T07:54:14.517Z,5.38
2019-05-05T07:56:44.350Z,5.06
2019-05-05T07:59:14.565Z,5.47
2019-05-05T08:01:46.585Z,5.85
2019-05-05T08:04:14.272Z,5.15
2019-05-05T08:06:44.552Z,5.39
2019-05-05T08:09:14.631Z,5.82
2019-05-05T08:11:43.727Z,5.34
2019-05-05T08:14:14.628Z,5.65
2019-05-05T08:16:44.762Z,5.77
2019-05-05T08:19:18.159Z,5.72
2019-05-05T08:21:47.051Z,5.80
2019-05-05T08:24:17.481Z,5.48
2019-05-05T08:27:04.736Z,5.67
2019-05-05T08:29:35.249Z,5.28
2019-05-05T08:32:17.949Z,5.49
2019-05-05T08:34:57.365Z,5.29
2019-05-05T08:37:18.370Z,5.62
2019-05-05T08:39:47.245Z,5.66
2019-05-05T08:42:16.069Z,5.94
2019-05-05T08:44:44.962Z,5.64
2019-05-05T08:47:14.048Z,5.93
2019-05-05T08:49:44.276Z,5.89
2019-05-05T08:52:14.487Z,5.67
2019-05-05T08:54:44.680Z,6.19
2019-05-05T08:57:14.708Z,5.94
2019-05-05T08:59:45.277Z,6.14
2019-05-05T09:02:14.960Z,6.10
2019-05-05T09:04:44.715Z,6.08
2019-05-05T09:07:14.309Z,5.70
2019-05-05T09:09:44.195Z,6.00
2019-05-05T09:12:14.053Z,6.39
2019-05-05T09:14:44.937Z,6.56
2019-05-05T09:17:13.818Z,5.99
2019-05-05T09:19:44.764Z,5.69
2019-05-05T09:22:13.975Z,6.30
2019-05-05T09:24:44.644Z,6.54
2019-05-05T09:27:15.054Z,6.04
2019-05-05T09:29:44.355Z,6.59
2019-05-05T09:32:13.941Z,6.21
2019-05-05T09:34:43.603Z,6.48
2019-05-05T09:37:14.403Z,6.32
2019-05-05T09:39:43.803Z,6.28
2019-05-05T09:42:14.550Z,6.81
2019-05-05T09:44:43.906Z,6.95
2019-05-05T09:47:13.666Z,6.81
2019-05-05T09:49:44.604Z,7.09
2019-05-05T09:52:14.101Z,6.94
2019-05-05T09:54:44.745Z,6.42
2019-05-05T09:57:14.507Z,6.96
2019-05-05T09:59:44.114Z,6.70
2019-05-05T10:02:13.565Z,6.44
2019-05-05T10:04:44.153Z,6.46
2019-05-05T10:07:13.850Z,6.77
2019-05-05T10:09:43.773Z,7.08
2019-05-05T10:12:14.451Z,5.90
2019-05-05T10:14:44.929Z,6.11
2019-05-05T10:17:14.223Z,5.82
2019-05-05T10:19:43.983Z,6.48
2019-05-05T10:22:14.828Z,6.84
2019-05-05T10:24:45.468Z,6.66
2019-05-05T10:27:14.353Z,6.98
2019-05-05T10:29:44.199Z,6.78
2019-05-05T10:32:13.830Z,6.67
2019-05-05T10:34:43.979Z,6.51
2019-05-05T10:37:14.631Z,7.16
2019-05-05T10:39:47.927Z,6.69
2019-05-05T10:42:18.422Z,6.51
2019-05-05T10:44:47.449Z,6.82
2019-05-05T10:47:16.345Z,7.38
2019-05-05T10:49:45.232Z,7.37
2019-05-05T10:52:14.398Z,7.11
2019-05-05T10:54:44.826Z,6.65
2019-05-05T10:57:15.539Z,7.38
2019-05-05T10:59:44.583Z,6.91
2019-05-05T11:02:14.159Z,7.27
2019-05-05T11:04:44.194Z,7.55
2019-05-05T11:07:14.951Z,7.51
2019-05-05T11:09:44.456Z,7.61
2019-05-05T11:12:14.299Z,6.94
2019-05-05T11:14:44.269Z,7.11
2019-05-05T11:17:14.947Z,7.74
2019-05-05T11:19:45.132Z,7.85
2019-05-05T11:22:14.721Z,7.74
2019-05-05T11:24:55.257Z,7.81
2019-05-05T11:27:14.367Z,8.09
2019-05-05T11:30:00.571Z,7.69
2019-05-05T11:32:47.475Z,7.56
2019-05-05T11:35:17.187Z,7.55
2019-05-05T11:37:46.180Z,7.39
2019-05-05T11:40:15.071Z,7.47
2019-05-05T11:42:43.961Z,7.53
2019-05-05T11:45:14.876Z,6.47
2019-05-05T11:47:45.226Z,6.79
2019-05-05T11:50:15.655Z,6.99
2019-05-05T11:52:44.546Z,6.58
2019-05-05T11:55:14.999Z,7.08
2019-05-05T11:57:44.065Z,6.88
2019-05-05T12:00:14.287Z,6.86
2019-05-05T12:02:43.922Z,7.40
2019-05-05T12:05:14.086Z,7.73
2019-05-05T12:07:43.701Z,7.40
2019-05-05T12:10:30.125Z,7.66
2019-05-05T12:13:00.657Z,7.75
2019-05-05T12:15:29.553Z,7.37
2019-05-05T12:17:58.439Z,7.69
2019-05-05T12:20:37.854Z,8.08
2019-05-05T12:23:10.367Z,7.93
2019-05-05T12:25:43.745Z,8.43
2019-05-05T12:28:19.875Z,8.09
2019-05-05T12:30:48.701Z,7.74
2019-05-05T12:33:17.589Z,7.91
2019-05-05T12:35:46.483Z,7.76
2019-05-05T12:38:15.371Z,7.39
2019-05-05T12:40:44.317Z,7.36
2019-05-05T12:43:14.185Z,7.42
2019-05-05T12:46:00.911Z,7.72
2019-05-05T12:48:34.505Z,8.19
2019-05-05T12:51:04.169Z,8.50
2019-05-05T12:53:33.348Z,8.64
2019-05-05T12:56:04.099Z,8.18
2019-05-05T12:58:33.583Z,8.77
2019-05-05T13:01:16.331Z,9.02
2019-05-05T13:03:45.141Z,8.96
2019-05-05T13:06:14.613Z,9.31
2019-05-05T13:08:44.500Z,9.01
2019-05-05T13:11:14.080Z,9.04
2019-05-05T13:13:43.948Z,9.53
2019-05-05T13:16:13.753Z,9.43
2019-05-05T13:18:42.688Z,8.69
2019-05-05T13:21:13.933Z,9.24
2019-05-05T13:23:47.636Z,9.37
2019-05-05T13:26:18.166Z,9.90
2019-05-05T13:28:47.061Z,9.88
2019-05-05T13:31:15.950Z,10.04
2019-05-05T13:33:44.843Z,10.15
2019-05-05T13:36:13.945Z,10.18
2019-05-05T13:38:43.836Z,10.65
2019-05-05T13:41:12.844Z,10.72
2019-05-05T13:43:41.741Z,10.57
2019-05-05T13:46:17.300Z,9.19
2019-05-05T13:48:46.173Z,9.89
2019-05-05T13:51:24.159Z,9.61
2019-05-05T13:53:53.952Z,9.60
2019-05-05T13:56:24.456Z,9.80
2019-05-05T13:58:53.413Z,9.92
2019-05-05T14:01:23.786Z,10.06
2019-05-05T14:03:54.147Z,9.10
2019-05-05T14:06:24.233Z,9.73
2019-05-05T14:08:54.017Z,9.89
2019-05-05T14:11:24.684Z,10.94
2019-05-05T14:13:53.723Z,10.05
2019-05-05T14:16:22.613Z,9.36
2019-05-05T14:18:53.599Z,10.28
2019-05-05T14:21:22.034Z,10.41
2019-05-05T14:24:08.924Z,10.55
2019-05-05T14:26:37.839Z,10.57
2019-05-05T14:29:08.206Z,10.68
2019-05-05T14:31:41.255Z,10.42
2019-05-05T14:34:24.585Z,10.36
2019-05-05T14:37:11.196Z,11.13
2019-05-05T14:39:40.184Z,10.41
2019-05-05T14:42:09.457Z,10.92
2019-05-05T14:44:39.809Z,10.84
2019-05-05T14:47:09.620Z,10.51
2019-05-05T14:49:38.511Z,10.48
2019-05-05T14:52:07.500Z,10.85
2019-05-05T14:54:36.397Z,10.28
2019-05-05T14:57:05.393Z,9.85
2019-05-05T14:59:36.896Z,10.93
2019-05-05T15:02:05.118Z,11.39
2019-05-05T15:04:35.572Z,11.63
2019-05-05T15:07:17.953Z,11.95
2019-05-05T15:09:51.148Z,10.26
2019-05-05T15:12:24.441Z,10.19
2019-05-05T15:14:54.713Z,10.90
2019-05-05T15:17:24.661Z,10.87
2019-05-05T15:19:54.086Z,11.70
2019-05-05T15:22:24.716Z,11.83
2019-05-05T15:24:53.777Z,10.25
2019-05-05T15:27:24.353Z,9.82
2019-05-05T15:29:54.289Z,10.38
2019-05-05T15:32:24.062Z,10.11
2019-05-05T15:34:54.601Z,9.99
2019-05-05T15:37:23.908Z,9.73
2019-05-05T15:39:53.596Z,9.95
2019-05-05T15:42:22.601Z,9.40
2019-05-05T15:44:51.501Z,9.25
2019-05-05T15:47:20.384Z,8.75
2019-05-05T15:49:49.277Z,9.47
2019-05-05T15:52:20.168Z,9.50
2019-05-05T15:54:48.798Z,9.69
2019-05-05T15:57:18.246Z,9.32
2019-05-05T15:59:47.298Z,9.98
2019-05-05T16:02:16.292Z,9.50
2019-05-05T16:04:45.387Z,10.34
2019-05-05T16:07:14.278Z,10.33
2019-05-05T16:09:44.432Z,10.90
2019-05-05T16:12:14.396Z,11.35
2019-05-05T16:14:46.241Z,11.39
2019-05-05T16:17:24.219Z,11.29
2019-05-05T16:20:04.554Z,11.17
2019-05-05T16:22:37.897Z,10.15
2019-05-05T16:25:10.512Z,10.47
2019-05-05T16:27:40.410Z,10.33
2019-05-05T16:30:14.479Z,8.29
2019-05-05T16:32:43.438Z,7.89
2019-05-05T16:35:14.867Z,8.29
2019-05-05T16:37:44.295Z,8.78
2019-05-05T16:40:15.013Z,8.29
2019-05-05T16:42:43.919Z,8.83
2019-05-05T16:45:16.466Z,9.97
2019-05-05T16:47:47.230Z,10.26
2019-05-05T16:50:16.244Z,10.04
2019-05-05T16:52:46.653Z,9.94
2019-05-05T16:55:17.211Z,9.35
2019-05-05T16:57:46.068Z,9.24
2019-05-05T17:00:15.554Z,9.47
2019-05-05T17:02:44.550Z,8.42
2019-05-05T17:05:15.482Z,7.88
2019-05-05T17:07:44.504Z,7.73
2019-05-05T17:10:13.964Z,8.02
2019-05-05T17:12:44.316Z,8.16
2019-05-05T17:15:35.230Z,7.85
2019-05-05T17:18:04.675Z,8.30
2019-05-05T17:20:38.343Z,8.34
2019-05-05T17:23:11.685Z,8.60
2019-05-05T17:25:41.656Z,8.95
2019-05-05T17:28:13.502Z,8.94
2019-05-05T17:30:43.648Z,7.75
2019-05-05T17:33:14.371Z,7.43
2019-05-05T17:35:43.569Z,6.96
2019-05-05T17:38:14.198Z,6.69
2019-05-05T17:40:44.628Z,6.91
2019-05-05T17:43:30.003Z,6.98
2019-05-05T17:46:00.431Z,7.88
2019-05-05T17:48:30.858Z,8.07
2019-05-05T17:51:04.456Z,8.05
2019-05-05T17:53:41.238Z,8.36
2019-05-05T17:56:14.286Z,8.43
2019-05-05T17:58:44.502Z,8.71
2019-05-05T18:01:13.541Z,9.14
2019-05-05T18:03:43.656Z,7.84
2019-05-05T18:06:17.365Z,7.10
2019-05-05T18:08:54.081Z,7.54
2019-05-05T18:11:35.166Z,7.98
2019-05-05T18:14:05.942Z,7.32
2019-05-05T18:16:34.844Z,8.67
2019-05-05T18:19:04.464Z,8.30
2019-05-05T18:21:34.833Z,8.67
2019-05-05T18:24:04.024Z,8.40
2019-05-05T18:26:34.071Z,8.22
2019-05-05T18:29:03.771Z,8.24
2019-05-05T18:31:33.628Z,7.53
2019-05-05T18:34:04.361Z,7.20
2019-05-05T18:36:33.243Z,7.24
2019-05-05T18:39:02.136Z,7.34
2019-05-05T18:41:34.325Z,7.09
2019-05-05T18:44:07.414Z,6.76
2019-05-05T18:46:36.386Z,6.75
2019-05-05T18:49:05.379Z,6.61
2019-05-05T18:51:34.758Z,6.45
2019-05-05T18:54:04.229Z,6.24
2019-05-05T18:56:34.744Z,6.56
2019-05-05T18:59:06.577Z,6.79
2019-05-05T19:01:42.327Z,6.51
2019-05-05T19:04:13.672Z,6.71
2019-05-05T19:06:56.701Z,6.40
2019-05-05T19:09:25.591Z,5.89
2019-05-05T19:11:54.694Z,5.34
2019-05-05T19:14:24.346Z,5.82
2019-05-05T19:16:55.537Z,5.85
2019-05-05T19:19:27.343Z,5.89
2019-05-05T19:22:04.343Z,5.40
2019-05-05T19:24:35.325Z,5.33
2019-05-05T19:27:03.911Z,5.58
2019-05-05T19:29:32.800Z,5.76
2019-05-05T19:32:01.689Z,5.74
2019-05-05T19:34:30.579Z,5.88
2019-05-05T19:36:59.473Z,5.77
2019-05-05T19:39:28.667Z,5.94
2019-05-05T19:41:57.677Z,5.94
2019-05-05T19:44:26.553Z,5.69
2019-05-05T19:46:59.856Z,5.39
2019-05-05T19:49:28.745Z,5.88
2019-05-05T19:51:57.632Z,5.41
2019-05-05T19:54:26.525Z,5.51
2019-05-05T19:56:55.416Z,5.58
2019-05-05T19:59:24.329Z,5.46
2019-05-05T20:01:54.011Z,5.15
2019-05-05T20:04:24.106Z,4.97
2019-05-05T20:06:54.773Z,5.08
2019-05-05T20:09:25.296Z,5.08
2019-05-05T20:11:54.616Z,5.40
2019-05-05T20:14:24.803Z,5.22
2019-05-05T20:17:07.491Z,5.00
2019-05-05T20:19:38.023Z,5.15
2019-05-05T20:22:07.801Z,4.82
2019-05-05T20:24:36.666Z,4.88
2019-05-05T20:27:05.658Z,4.95
2019-05-05T20:29:37.377Z,5.08
2019-05-05T20:32:05.193Z,4.93
2019-05-05T20:34:35.716Z,4.53
2019-05-05T20:37:14.180Z,4.71
2019-05-05T20:39:44.016Z,4.75
2019-05-05T20:42:14.931Z,5.14
2019-05-05T20:44:43.990Z,4.70
2019-05-05T20:47:12.973Z,5.01
2019-05-05T20:49:41.858Z,4.86
2019-05-05T20:52:14.022Z,4.76
2019-05-05T20:54:44.100Z,4.84
2019-05-05T20:57:12.832Z,4.97
2019-05-05T20:59:41.725Z,5.06
2019-05-05T21:02:11.126Z,4.90
2019-05-05T21:04:40.019Z,5.22
2019-05-05T21:07:09.037Z,5.06
2019-05-05T21:09:37.910Z,5.16
2019-05-05T21:12:06.844Z,5.04
2019-05-05T21:14:38.151Z,4.93
2019-05-05T21:17:06.625Z,4.26
2019-05-05T21:19:35.415Z,4.50
2019-05-05T21:22:22.226Z,4.45
2019-05-05T21:24:54.112Z,4.81
2019-05-05T21:27:24.396Z,4.58
2019-05-05T21:29:54.379Z,4.22
2019-05-05T21:32:25.404Z,4.51
2019-05-05T21:34:54.056Z,4.17
2019-05-05T21:37:24.938Z,4.53
2019-05-05T21:39:55.209Z,4.64
2019-05-05T21:42:24.188Z,4.66
2019-05-05T21:44:53.908Z,4.76
2019-05-05T21:47:23.992Z,4.75
2019-05-05T21:49:54.227Z,4.78
2019-05-05T21:52:28.073Z,4.80
2019-05-05T21:55:01.157Z,4.56
2019-05-05T21:57:46.841Z,4.59
2019-05-05T22:00:34.684Z,4.70
2019-05-05T22:03:04.473Z,4.28
2019-05-05T22:05:33.591Z,4.84
2019-05-05T22:08:04.605Z,4.73
2019-05-05T22:10:34.315Z,4.93
2019-05-05T22:13:04.868Z,4.64
2019-05-05T22:15:35.695Z,4.41
2019-05-05T22:18:04.578Z,4.78
2019-05-05T22:20:44.315Z,4.59
2019-05-05T22:23:14.532Z,4.54
2019-05-05T22:25:43.823Z,4.52
2019-05-05T22:28:12.762Z,4.57
2019-05-05T22:30:43.718Z,4.36
2019-05-05T22:33:13.732Z,4.21
2019-05-05T22:35:44.251Z,4.24
2019-05-05T22:38:13.746Z,4.59
2019-05-05T22:40:44.055Z,4.66
2019-05-05T22:43:14.507Z,4.69
2019-05-05T22:45:44.996Z,4.42
2019-05-05T22:48:14.430Z,4.34
2019-05-05T22:50:43.772Z,4.59
2019-05-05T22:53:14.047Z,4.43
2019-05-05T22:55:43.960Z,4.53
2019-05-05T22:58:14.338Z,4.53
2019-05-05T23:00:43.868Z,4.54
2019-05-05T23:03:17.611Z,4.47
2019-05-05T23:05:51.009Z,4.62
2019-05-05T23:08:19.899Z,4.71
2019-05-05T23:10:48.788Z,4.71
2019-05-05T23:13:21.062Z,4.01
2019-05-05T23:15:57.631Z,4.52
2019-05-05T23:18:28.172Z,4.62
2019-05-05T23:21:15.959Z,4.55
2019-05-05T23:24:03.759Z,4.42
2019-05-05T23:26:37.534Z,4.74
2019-05-05T23:29:06.527Z,4.07
2019-05-05T23:31:35.523Z,4.60
2019-05-05T23:34:04.516Z,4.36
2019-05-05T23:36:33.960Z,4.24
2019-05-05T23:39:04.940Z,4.16
2019-05-05T23:41:34.860Z,4.10
2019-05-05T23:44:04.891Z,4.42
2019-05-05T23:46:34.814Z,4.20
2019-05-05T23:49:04.392Z,4.18
2019-05-05T23:51:34.718Z,3.93
2019-05-05T23:54:04.294Z,4.18
2019-05-05T23:56:34.983Z,3.76
2019-05-05T23:59:04.426Z,4.35
